Startpagina
METAR-TAF:

METAR-TAF

Vliegvelden :

Rotterdam, Nederland

Rotterdam The Hague Airport

breedte: 51-57N, lengte: 004-27E, hoogte: -5 m

Actueel weer

Dit bericht is 37 minuten geleden gemaakt, om 10:25 UTC
Wind 10 kt uit het oostzuidoosten, variërend tussen het oostnoordoosten en het zuidzuidoosten
Temperatuur 23°C
Vochtigheid 57%
Druk 1021 hPa
Zicht 10 km of meer

METAR: EHRD 261025Z AUTO 11010KT 060V150 9999 NSC 23/14 Q1021 NOSIG

Tijdstip: 13:02 (11:02 UTC)

Verwachting

Dit bericht is 6 uur en het 40 minuten geleden gemaakt, om 04:22 UTC
Verwachting geldig van 26 om 06 UTC tot 27 om 12 UTC
Wind 10 kt uit het oosten
Zicht 10 km of meer
geen wolken onder 1500 m en geen cumulonimbus
Wijzigt naar
van 27 om 07 UTC tot 27 om 10 UTC
Wind 13 kt uit het zuidoosten

TAF: EHRD 260422Z 2606/2712 09010KT CAVOK BECMG 2707/2710 14013KT

Waarnemingen en weersverwachtingen van meer dan 4000 vliegvelden (METAR en TAF).

De beschikbare stations zijn de gele en rode punten op de kaart.

Ga met uw muis naar het station om de naam te zien.

Klik dan om waarnemingen en weersverwachtingen te zien.

kaart wijzigen: klik op de groene knoppen met een zwart kruis om in te zoomen, op de groene knop met een streepje om uit te zoomen of op de groene pijlen voor aangrenzende kaarten.


METAR-TAF: